Time;durP1;ratioP1;P1;durP2;ratioP2;P2;SDS_P1;SDS_P2;PMS_P1;PMS_P2;Temp;Humidity;BMP_temperature;BMP_pressure;BME280_temperature;BME280_humidity;BME280_pressure;Samples;Min_cycle;Max_cycle;Signal;HPM_P1;HPM_P2
2021/04/12 00:00:10;;;;;;;0.75;0.65;;;10.70;74.90;;;;;;5029578;28;20077;-42
2021/04/12 00:02:45;;;;;;;0.88;0.50;;;10.80;74.90;;;;;;5029921;28;20116;-43
2021/04/12 00:05:37;;;;;;;0.82;0.70;;;10.80;74.90;;;;;;5034722;28;20053;-46
2021/04/12 00:08:17;;;;;;;1.02;0.70;;;10.70;74.80;;;;;;5104602;28;20051;-41
2021/04/12 00:11:10;;;;;;;0.52;0.52;;;10.70;74.80;;;;;;5114917;28;20075;-41
2021/04/12 00:13:57;;;;;;;1.30;0.82;;;10.70;74.80;;;;;;5115879;28;20441;-42
2021/04/12 00:16:29;;;;;;;1.08;0.90;;;10.70;74.80;;;;;;5116202;28;20044;-42
2021/04/12 00:19:05;;;;;;;0.70;0.70;;;10.70;74.90;;;;;;5116019;28;20070;-42
2021/04/12 00:21:48;;;;;;;0.93;0.63;;;10.70;74.80;;;;;;5116389;28;20403;-44
2021/04/12 00:24:30;;;;;;;0.50;0.50;;;10.70;74.80;;;;;;5116088;28;20079;-39
2021/04/12 00:27:09;;;;;;;1.00;0.60;;;10.70;74.80;;;;;;5115878;28;20115;-45
2021/04/12 00:30:14;;;;;;;1.13;0.73;;;10.70;74.80;;;;;;5115950;28;20062;-40
2021/04/12 00:32:46;;;;;;;0.70;0.40;;;10.70;74.80;;;;;;5115780;28;20066;-43
2021/04/12 00:35:15;;;;;;;0.77;0.60;;;10.70;74.80;;;;;;5115726;28;20480;-41
2021/04/12 00:38:06;;;;;;;1.55;0.50;;;10.70;74.80;;;;;;5116085;28;20138;-41
2021/04/12 00:40:38;;;;;;;1.48;0.80;;;10.70;74.80;;;;;;5115372;28;20047;-39
2021/04/12 00:43:09;;;;;;;1.00;0.90;;;10.70;74.80;;;;;;5115850;28;20048;-39
2021/04/12 00:45:56;;;;;;;0.82;0.73;;;10.70;74.80;;;;;;5114687;28;20488;-41
2021/04/12 00:48:27;;;;;;;0.65;0.60;;;10.70;74.80;;;;;;5095352;28;20492;-41
2021/04/12 00:51:23;;;;;;;0.50;0.50;;;10.70;74.90;;;;;;5098794;28;20051;-40
2021/04/12 00:54:08;;;;;;;;;;;10.70;74.80;;;;;;5116194;28;20048;-39
2021/04/12 00:56:56;;;;;;;1.75;0.90;;;10.70;74.70;;;;;;5115003;28;19943;-41
2021/04/12 00:59:59;;;;;;;0.95;0.70;;;10.70;74.80;;;;;;5052399;28;20136;-38
2021/04/12 01:02:36;;;;;;;0.80;0.47;;;10.70;74.80;;;;;;5052082;28;20053;-39
2021/04/12 01:05:25;;;;;;;0.90;0.70;;;10.70;74.80;;;;;;5052620;28;20123;-40
2021/04/12 01:08:02;;;;;;;0.80;0.60;;;10.70;74.80;;;;;;5032573;28;20045;-40
2021/04/12 01:10:33;;;;;;;0.60;0.60;;;10.70;74.80;;;;;;5052256;28;20053;-39
2021/04/12 01:13:39;;;;;;;1.25;0.85;;;10.70;74.80;;;;;;5052558;28;20524;-41
2021/04/12 01:16:05;;;;;;;0.60;0.60;;;10.70;74.80;;;;;;5052158;28;20045;-39
2021/04/12 01:18:56;;;;;;;0.75;0.55;;;10.70;74.80;;;;;;5051506;28;20055;-41
2021/04/12 01:22:06;;;;;;;0.70;0.70;;;10.70;75.50;;;;;;5040714;28;20141;-39
2021/04/12 01:25:10;;;;;;;0.60;0.60;;;10.70;74.80;;;;;;5051968;28;20045;-41
2021/04/12 01:28:04;;;;;;;1.13;0.77;;;10.70;74.80;;;;;;5051820;28;20088;-41
2021/04/12 01:30:48;;;;;;;0.90;0.68;;;10.70;74.80;;;;;;5052213;28;20048;-39
2021/04/12 01:33:44;;;;;;;1.02;0.70;;;10.70;74.80;;;;;;5051404;28;20048;-40
2021/04/12 01:36:48;;;;;;;1.02;0.63;;;10.70;74.80;;;;;;5075390;28;20055;-42
2021/04/12 01:39:35;;;;;;;1.25;0.60;;;10.70;74.80;;;;;;5112842;28;20047;-41
2021/04/12 01:42:12;;;;;;;0.82;0.70;;;10.70;74.80;;;;;;5094488;28;20123;-40
2021/04/12 01:44:59;;;;;;;1.08;0.70;;;10.60;74.80;;;;;;5105505;28;20049;-45
2021/04/12 01:47:37;;;;;;;1.02;0.65;;;10.60;74.80;;;;;;5108781;28;20051;-43
2021/04/12 01:50:21;;;;;;;0.50;0.50;;;10.60;74.80;;;;;;5114232;28;20086;-47
2021/04/12 01:53:16;;;;;;;0.88;0.82;;;10.70;74.80;;;;;;5114137;28;20055;-43
2021/04/12 01:56:10;;;;;;;0.63;0.50;;;10.60;74.70;;;;;;5071681;28;20531;-45
2021/04/12 01:58:51;;;;;;;1.58;0.70;;;10.60;74.70;;;;;;5070668;28;20055;-45
2021/04/12 02:01:58;;;;;;;0.60;0.60;;;10.60;74.70;;;;;;5071627;28;20056;-47
2021/04/12 02:04:55;;;;;;;0.68;0.60;;;10.60;74.70;;;;;;5071255;28;20063;-45
2021/04/12 02:07:44;;;;;;;0.60;0.60;;;10.60;74.60;;;;;;5071168;28;20048;-45
2021/04/12 02:10:22;;;;;;;0.70;0.57;;;10.70;74.70;;;;;;5070837;28;20044;-45
2021/04/12 02:13:01;;;;;;;1.73;0.77;;;10.60;74.70;;;;;;5071353;28;20052;-42
2021/04/12 02:15:53;;;;;;;0.55;0.55;;;10.60;74.70;;;;;;5070927;28;20072;-47
2021/04/12 02:18:40;;;;;;;1.55;0.88;;;10.60;74.70;;;;;;5071015;28;20080;-39
2021/04/12 02:21:39;;;;;;;2.00;0.80;;;10.60;74.60;;;;;;5070735;28;20049;-44
2021/04/12 02:24:42;;;;;;;0.55;0.52;;;10.60;74.60;;;;;;5070916;28;20054;-43
2021/04/12 02:27:44;;;;;;;0.88;0.88;;;10.60;74.60;;;;;;5071115;28;20052;-44
2021/04/12 02:30:35;;;;;;;2.22;0.70;;;10.60;74.60;;;;;;5031542;28;20135;-44
2021/04/12 02:33:06;;;;;;;0.90;0.70;;;10.60;74.70;;;;;;5057099;28;20048;-40
2021/04/12 02:35:56;;;;;;;0.70;0.70;;;10.60;74.70;;;;;;5070571;28;20044;-43
2021/04/12 02:38:55;;;;;;;0.85;0.57;;;10.60;74.70;;;;;;5071150;28;20536;-44
2021/04/12 02:41:39;;;;;;;0.90;0.52;;;10.60;74.70;;;;;;5082854;28;20055;-43
2021/04/12 02:44:41;;;;;;;0.73;0.57;;;10.60;74.60;;;;;;5090795;28;20094;-45
2021/04/12 02:47:26;;;;;;;0.82;0.77;;;10.60;74.60;;;;;;5089089;28;20206;-44
2021/04/12 02:49:57;;;;;;;0.95;0.63;;;10.60;74.60;;;;;;5090699;28;20138;-44
2021/04/12 02:52:44;;;;;;;0.82;0.68;;;10.60;74.60;;;;;;5075332;28;20054;-48
2021/04/12 02:55:35;;;;;;;1.00;0.90;;;10.60;74.60;;;;;;5075212;28;20467;-44
2021/04/12 02:58:12;;;;;;;0.70;0.60;;;10.60;75.30;;;;;;5090996;28;20048;-43
2021/04/12 03:01:08;;;;;;;0.70;0.70;;;10.60;74.60;;;;;;5081754;28;20049;-47
2021/04/12 03:03:55;;;;;;;1.00;0.70;;;10.60;74.50;;;;;;5071596;28;20139;-49
2021/04/12 03:06:42;;;;;;;1.23;0.70;;;10.60;74.50;;;;;;5073474;28;20059;-45
2021/04/12 03:09:32;;;;;;;1.67;0.70;;;10.60;74.50;;;;;;5092844;28;20040;-45
2021/04/12 03:12:27;;;;;;;1.00;0.75;;;10.60;74.50;;;;;;5112503;28;20403;-45
2021/04/12 03:15:02;;;;;;;2.03;0.80;;;10.60;74.50;;;;;;5110796;28;20059;-43
2021/04/12 03:17:43;;;;;;;1.02;0.80;;;10.60;75.10;;;;;;5111896;28;20043;-45
2021/04/12 03:20:27;;;;;;;0.63;0.60;;;10.60;74.50;;;;;;5112000;28;20083;-48
2021/04/12 03:23:14;;;;;;;0.93;0.70;;;10.60;74.40;;;;;;5112687;28;20395;-41
2021/04/12 03:26:16;;;;;;;0.77;0.77;;;10.50;74.40;;;;;;5112868;28;20502;-43
2021/04/12 03:29:21;;;;;;;0.75;0.60;;;10.60;74.40;;;;;;5104857;28;20491;-40
2021/04/12 03:32:12;;;;;;;1.15;1.05;;;10.50;74.40;;;;;;5091751;28;20132;-41
2021/04/12 03:34:49;;;;;;;0.80;0.80;;;10.50;74.40;;;;;;5101056;28;20051;-42
2021/04/12 03:37:55;;;;;;;1.00;0.73;;;10.50;74.40;;;;;;5112005;28;20043;-43
2021/04/12 03:40:38;;;;;;;1.42;0.73;;;10.50;74.30;;;;;;5112610;28;20197;-41
2021/04/12 03:43:31;;;;;;;0.70;0.70;;;10.50;74.30;;;;;;5112504;28;20110;-42
2021/04/12 03:46:28;;;;;;;0.68;0.60;;;10.60;74.40;;;;;;5115550;28;20491;-41
2021/04/12 03:49:02;;;;;;;1.30;0.77;;;10.50;74.30;;;;;;5112084;28;20052;-40
2021/04/12 03:51:57;;;;;;;0.70;0.47;;;10.50;74.30;;;;;;5116742;28;20241;-42
2021/04/12 03:54:58;;;;;;;1.08;0.80;;;10.50;74.30;;;;;;5114748;28;20044;-42
2021/04/12 03:57:49;;;;;;;1.25;0.88;;;10.50;74.30;;;;;;5072461;28;20098;-45
2021/04/12 04:00:23;;;;;;;0.63;0.63;;;10.50;74.30;;;;;;5073490;28;20067;-43
2021/04/12 04:03:11;;;;;;;1.00;0.90;;;10.50;74.30;;;;;;5073445;28;20136;-40
2021/04/12 04:06:03;;;;;;;0.70;0.68;;;10.50;74.30;;;;;;5073277;28;20048;-42
2021/04/12 04:08:36;;;;;;;1.73;0.88;;;10.50;74.30;;;;;;5072696;28;20101;-40
2021/04/12 04:11:04;;;;;;;1.85;0.63;;;10.50;74.30;;;;;;5072966;28;20401;-40
2021/04/12 04:13:42;;;;;;;2.17;1.38;;;10.50;74.30;;;;;;5073165;28;20040;-42
2021/04/12 04:16:48;;;;;;;0.90;0.73;;;10.50;74.30;;;;;;5073291;28;20052;-39
2021/04/12 04:19:40;;;;;;;0.65;0.60;;;10.50;74.40;;;;;;5073307;28;20143;-42
2021/04/12 04:22:21;;;;;;;0.73;0.70;;;10.50;74.30;;;;;;5073171;28;20071;-41
2021/04/12 04:25:23;;;;;;;1.40;0.80;;;10.50;74.30;;;;;;5072927;28;20061;-42
2021/04/12 04:28:10;;;;;;;0.98;0.80;;;10.50;74.20;;;;;;5072228;28;20052;-40
2021/04/12 04:31:02;;;;;;;1.02;0.80;;;10.50;74.30;;;;;;5076574;28;20130;-42
2021/04/12 04:34:17;;;;;;;0.77;0.77;;;10.50;74.20;;;;;;5095318;28;20052;-38
2021/04/12 04:37:19;;;;;;;0.50;0.50;;;10.50;74.20;;;;;;5053218;28;20205;-46
2021/04/12 04:40:22;;;;;;;0.73;0.60;;;10.50;74.20;;;;;;5071298;28;20060;-41
2021/04/12 04:43:16;;;;;;;1.00;0.80;;;10.50;74.20;;;;;;5071614;28;20048;-43
2021/04/12 04:46:09;;;;;;;1.05;0.95;;;10.50;74.20;;;;;;5072599;28;20102;-40
2021/04/12 04:48:59;;;;;;;0.95;0.90;;;10.50;74.20;;;;;;5072839;28;20139;-45
2021/04/12 04:51:40;;;;;;;0.73;0.65;;;10.50;74.20;;;;;;5072788;28;20048;-39
2021/04/12 04:54:37;;;;;;;1.15;0.70;;;10.50;74.30;;;;;;5052300;28;20057;-45
2021/04/12 04:57:25;;;;;;;1.60;0.90;;;10.50;74.20;;;;;;5051245;28;20767;-45
2021/04/12 05:00:13;;;;;;;1.17;0.93;;;10.40;74.20;;;;;;5052348;28;20053;-45
2021/04/12 05:03:20;;;;;;;0.82;0.50;;;10.40;74.10;;;;;;5055549;28;20040;-46
2021/04/12 05:05:46;;;;;;;1.73;0.73;;;10.50;74.10;;;;;;5072551;28;20102;-47
2021/04/12 05:08:50;;;;;;;0.82;0.70;;;10.40;74.10;;;;;;5072302;28;20131;-48
2021/04/12 05:11:29;;;;;;;0.90;0.60;;;10.50;74.20;;;;;;5072134;28;20048;-46
2021/04/12 05:14:18;;;;;;;1.20;0.68;;;10.50;74.20;;;;;;5098551;28;20131;-43
2021/04/12 05:17:14;;;;;;;0.50;0.50;;;10.50;74.20;;;;;;5114921;28;20059;-46
2021/04/12 05:20:01;;;;;;;1.70;0.80;;;10.40;74.10;;;;;;5115101;28;20047;-43
2021/04/12 05:22:44;;;;;;;0.73;0.50;;;10.50;74.20;;;;;;5114520;28;20058;-46
2021/04/12 05:25:28;;;;;;;1.85;0.85;;;10.40;74.10;;;;;;5114363;28;20593;-43
2021/04/12 05:28:24;;;;;;;0.70;0.68;;;10.40;74.10;;;;;;5114681;28;20054;-43
2021/04/12 05:31:20;;;;;;;1.75;0.80;;;10.40;74.10;;;;;;5114908;28;20061;-45
2021/04/12 05:34:02;;;;;;;1.15;0.93;;;10.40;74.20;;;;;;5114264;28;20055;-49
2021/04/12 05:36:54;;;;;;;0.50;0.50;;;10.40;74.10;;;;;;5113917;28;20047;-45
2021/04/12 05:39:57;;;;;;;0.50;0.50;;;10.40;74.20;;;;;;5071634;28;20048;-40
2021/04/12 05:42:31;;;;;;;0.77;0.60;;;10.40;74.20;;;;;;5071577;28;20049;-50
2021/04/12 05:45:16;;;;;;;0.95;0.75;;;10.40;74.20;;;;;;5071354;28;20037;-45
2021/04/12 05:48:27;;;;;;;1.13;1.08;;;10.40;74.20;;;;;;5071258;28;20135;-48
2021/04/12 05:51:14;;;;;;;1.13;0.90;;;10.40;74.30;;;;;;4991852;28;20507;-49
2021/04/12 05:53:45;;;;;;;0.98;0.70;;;10.40;74.30;;;;;;4992306;28;20049;-48
2021/04/12 05:56:31;;;;;;;1.95;1.00;;;10.40;74.30;;;;;;4991716;28;20514;-50
2021/04/12 05:59:33;;;;;;;0.93;0.60;;;10.40;74.40;;;;;;4992157;28;20046;-47
2021/04/12 06:02:17;;;;;;;0.60;0.50;;;10.40;74.30;;;;;;4991531;28;20058;-45
2021/04/12 06:04:52;;;;;;;0.73;0.73;;;10.40;74.40;;;;;;4992203;28;20057;-47
2021/04/12 06:07:48;;;;;;;0.45;0.45;;;10.40;74.40;;;;;;4991312;28;20046;-47
2021/04/12 06:10:39;;;;;;;0.65;0.60;;;10.40;74.40;;;;;;4992040;28;20050;-48
2021/04/12 06:13:42;;;;;;;0.50;0.50;;;10.40;74.40;;;;;;4988682;28;20074;-43
2021/04/12 06:16:37;;;;;;;0.60;0.60;;;10.40;74.40;;;;;;5000121;28;20058;-45
2021/04/12 06:19:40;;;;;;;0.60;0.60;;;10.40;74.40;;;;;;5028874;28;20052;-49
2021/04/12 06:22:32;;;;;;;1.13;0.60;;;10.40;74.40;;;;;;5031110;28;20068;-48
2021/04/12 06:25:03;;;;;;;1.00;0.57;;;10.40;74.50;;;;;;5031285;28;20045;-48
2021/04/12 06:27:50;;;;;;;0.80;0.50;;;10.40;74.50;;;;;;5064829;28;20056;-47
2021/04/12 06:30:34;;;;;;;0.70;0.50;;;10.40;74.50;;;;;;5102995;28;20056;-46
2021/04/12 06:33:34;;;;;;;0.90;0.80;;;10.40;74.60;;;;;;5113666;28;20122;-45
2021/04/12 06:36:14;;;;;;;0.55;0.43;;;10.40;74.60;;;;;;5113476;28;20082;-45
2021/04/12 06:39:07;;;;;;;1.17;0.60;;;10.40;74.60;;;;;;5113784;28;20043;-48
2021/04/12 06:41:51;;;;;;;0.50;0.50;;;10.40;74.60;;;;;;5101182;28;20123;-45
2021/04/12 06:44:39;;;;;;;1.63;0.60;;;10.40;74.60;;;;;;5113319;28;20503;-40
2021/04/12 06:47:27;;;;;;;0.73;0.40;;;10.40;74.70;;;;;;5113708;28;20047;-43
2021/04/12 06:50:31;;;;;;;1.30;0.50;;;10.40;74.60;;;;;;5113142;28;20039;-41
2021/04/12 06:53:36;;;;;;;0.95;0.73;;;10.40;74.60;;;;;;5113731;28;20116;-41
2021/04/12 06:56:18;;;;;;;0.50;0.50;;;10.40;74.60;;;;;;5113517;28;20051;-43
2021/04/12 06:58:49;;;;;;;0.60;0.50;;;10.40;74.60;;;;;;5112838;28;20052;-40
2021/04/12 07:01:24;;;;;;;0.57;0.47;;;10.40;74.60;;;;;;5112551;28;20158;-43
2021/04/12 07:04:16;;;;;;;0.50;0.50;;;10.40;74.70;;;;;;5113285;28;20384;-40
2021/04/12 07:07:03;;;;;;;0.40;0.40;;;10.40;74.60;;;;;;5113499;28;20051;-41
2021/04/12 07:10:04;;;;;;;0.50;0.50;;;10.40;74.60;;;;;;5113072;28;20052;-41
2021/04/12 07:12:44;;;;;;;0.52;0.50;;;10.40;75.20;;;;;;5113213;28;20039;-42
2021/04/12 07:15:47;;;;;;;3.28;1.67;;;10.40;74.60;;;;;;5112768;28;20104;-46
2021/04/12 07:18:43;;;;;;;3.60;1.10;;;10.50;71.60;;;;;;5113216;28;20043;-42
2021/04/12 07:21:47;;;;;;;4.45;2.13;;;10.50;72.60;;;;;;5115903;28;20047;-43
2021/04/12 07:24:46;;;;;;;4.10;1.50;;;10.50;72.40;;;;;;5104925;28;20047;-43
2021/04/12 07:27:32;;;;;;;2.47;1.15;;;10.50;72.50;;;;;;5117291;28;20043;-44
2021/04/12 07:30:21;;;;;;;2.08;1.10;;;10.50;72.60;;;;;;5116895;28;20047;-40
2021/04/12 07:33:20;;;;;;;4.55;1.23;;;10.50;72.60;;;;;;5116969;28;20040;-41
2021/04/12 07:36:25;;;;;;;1.77;1.40;;;10.50;72.60;;;;;;5102974;28;20204;-42
2021/04/12 07:39:10;;;;;;;1.95;0.90;;;10.50;72.70;;;;;;5053868;28;20068;-39
2021/04/12 07:42:03;;;;;;;2.45;1.15;;;10.50;72.90;;;;;;5053881;28;20056;-45
2021/04/12 07:45:02;;;;;;;3.50;1.20;;;10.50;72.90;;;;;;5053913;28;20549;-42
2021/04/12 07:48:06;;;;;;;2.08;1.30;;;10.50;73.00;;;;;;5054088;28;20052;-40
2021/04/12 07:51:09;;;;;;;1.35;0.93;;;10.60;72.40;;;;;;5054035;28;20444;-45
2021/04/12 07:54:11;;;;;;;1.10;0.85;;;10.50;72.40;;;;;;5036911;28;20367;-50
2021/04/12 07:57:04;;;;;;;1.10;1.00;;;10.60;72.60;;;;;;5053855;28;20390;-43
2021/04/12 07:59:57;;;;;;;3.33;0.70;;;10.60;72.90;;;;;;5053732;28;20064;-43
2021/04/12 08:02:50;;;;;;;2.10;1.00;;;10.60;72.90;;;;;;5053325;28;20053;-41
2021/04/12 08:05:31;;;;;;;2.58;1.10;;;10.60;73.00;;;;;;5053492;28;20041;-42
2021/04/12 08:08:30;;;;;;;2.97;1.20;;;10.60;73.10;;;;;;5053905;28;20413;-40
2021/04/12 08:11:22;;;;;;;2.15;1.10;;;10.60;73.20;;;;;;5053609;28;20044;-42
2021/04/12 08:14:25;;;;;;;2.80;1.10;;;10.60;73.30;;;;;;5053671;28;20057;-41
2021/04/12 08:16:54;;;;;;;1.75;1.02;;;10.60;73.50;;;;;;5106326;28;20112;-45
2021/04/12 08:19:42;;;;;;;3.10;1.00;;;10.60;73.50;;;;;;5116482;28;20044;-46
2021/04/12 08:22:33;;;;;;;3.95;1.55;;;10.60;73.50;;;;;;5116080;27;20055;-43
2021/04/12 08:25:25;;;;;;;2.22;1.23;;;10.60;72.20;;;;;;5115991;28;20051;-41
2021/04/12 08:28:10;;;;;;;3.50;1.27;;;10.60;72.30;;;;;;5115930;28;20039;-44
2021/04/12 08:30:49;;;;;;;1.50;0.90;;;10.60;72.10;;;;;;5115748;28;20044;-42
2021/04/12 08:33:48;;;;;;;3.00;0.80;;;10.60;72.10;;;;;;5115765;28;20046;-42
2021/04/12 08:36:45;;;;;;;2.15;1.05;;;10.60;71.90;;;;;;5115960;28;20055;-44
2021/04/12 08:39:16;;;;;;;1.50;1.10;;;10.60;71.90;;;;;;5115952;27;20526;-42
2021/04/12 08:41:57;;;;;;;5.18;1.20;;;10.60;72.00;;;;;;5115818;28;20048;-37
2021/04/12 08:45:01;;;;;;;4.72;1.30;;;10.60;72.00;;;;;;5115823;28;20439;-42
2021/04/12 08:48:12;;;;;;;4.57;0.90;;;10.60;71.00;;;;;;5114764;28;20048;-56
2021/04/12 08:50:49;;;;;;;2.88;0.93;;;10.60;71.80;;;;;;5115302;27;20039;-44
2021/04/12 08:53:34;;;;;;;2.25;0.90;;;10.70;72.00;;;;;;5115502;28;20403;-52
2021/04/12 08:56:37;;;;;;;3.00;0.90;;;10.60;72.00;;;;;;5115648;28;20048;-53
2021/04/12 08:59:53;;;;;;;2.33;0.77;;;10.70;72.10;;;;;;5115113;28;20108;-53
2021/04/12 09:02:49;;;;;;;2.45;0.70;;;10.70;72.20;;;;;;5115337;28;20059;-48
2021/04/12 09:05:51;;;;;;;5.20;1.10;;;10.70;72.30;;;;;;5115562;28;20451;-49
2021/04/12 09:08:59;;;;;;;2.13;0.88;;;10.70;72.40;;;;;;5115185;28;20044;-53
2021/04/12 09:11:52;;;;;;;2.20;0.80;;;10.80;72.50;;;;;;5115286;28;20108;-51
2021/04/12 09:14:55;;;;;;;0.70;0.65;;;10.80;72.50;;;;;;5115200;28;20070;-56
2021/04/12 09:17:49;;;;;;;1.23;0.70;;;10.80;72.50;;;;;;5115074;28;20399;-53
2021/04/12 09:20:30;;;;;;;2.15;1.00;;;10.90;72.60;;;;;;5113050;28;20047;-51
2021/04/12 09:23:15;;;;;;;2.10;1.08;;;10.90;72.70;;;;;;5114938;28;20039;-52
2021/04/12 09:26:13;;;;;;;1.67;0.70;;;10.90;72.50;;;;;;5115065;28;20108;-55
2021/04/12 09:29:07;;;;;;;1.27;0.60;;;10.90;72.50;;;;;;5114828;28;20054;-47
2021/04/12 09:31:54;;;;;;;2.90;1.25;;;10.90;72.50;;;;;;5114007;28;20051;-52
2021/04/12 09:34:37;;;;;;;1.73;0.77;;;11.00;72.60;;;;;;5114092;28;20450;-46
2021/04/12 09:37:26;;;;;;;2.17;1.00;;;11.00;72.60;;;;;;5114709;28;20060;-47
2021/04/12 09:40:10;;;;;;;1.77;1.02;;;11.00;72.50;;;;;;5114440;28;20047;-43
2021/04/12 09:43:07;;;;;;;1.60;0.60;;;11.00;72.50;;;;;;5113841;28;20054;-47
2021/04/12 09:45:54;;;;;;;1.50;0.77;;;11.00;72.50;;;;;;5114791;28;20051;-45
2021/04/12 09:48:28;;;;;;;1.83;0.98;;;11.00;72.40;;;;;;5114493;28;20043;-48
2021/04/12 09:51:36;;;;;;;1.70;0.88;;;11.10;72.50;;;;;;5114036;28;20086;-49
2021/04/12 09:54:24;;;;;;;0.88;0.60;;;11.10;72.40;;;;;;5113913;28;20056;-44
2021/04/12 09:57:11;;;;;;;1.05;0.98;;;11.10;72.40;;;;;;5112882;28;20054;-43
2021/04/12 09:59:57;;;;;;;1.98;0.80;;;11.10;72.30;;;;;;5108321;28;20058;-43
2021/04/12 10:02:41;;;;;;;0.93;0.60;;;11.10;72.30;;;;;;5113563;28;20081;-41
2021/04/12 10:05:27;;;;;;;1.30;1.00;;;11.10;72.20;;;;;;5113678;28;20121;-41
2021/04/12 10:08:13;;;;;;;;;;;11.10;72.20;;;;;;5114616;28;20446;-41
2021/04/12 10:10:58;;;;;;;1.65;0.82;;;11.20;72.20;;;;;;5114227;28;19920;-41
2021/04/12 10:13:37;;;;;;;2.25;1.48;;;11.20;72.20;;;;;;5113985;28;20511;-43
2021/04/12 10:16:09;;;;;;;1.90;0.60;;;11.20;72.80;;;;;;5113844;28;20051;-48
2021/04/12 10:19:16;;;;;;;3.28;0.90;;;11.20;72.10;;;;;;5114128;28;20070;-44
2021/04/12 10:21:56;;;;;;;0.77;0.63;;;11.20;72.00;;;;;;5105212;28;20051;-40
2021/04/12 10:24:28;;;;;;;2.45;0.70;;;11.20;72.00;;;;;;5093581;28;20055;-44
2021/04/12 10:27:07;;;;;;;2.33;0.60;;;11.20;72.00;;;;;;5093400;28;20048;-42
2021/04/12 10:29:37;;;;;;;1.92;0.80;;;11.30;72.00;;;;;;5093228;28;20051;-41
2021/04/12 10:32:17;;;;;;;0.98;0.60;;;11.20;71.90;;;;;;5093488;28;20044;-45
2021/04/12 10:34:47;;;;;;;1.98;0.82;;;11.30;71.80;;;;;;5112966;28;20122;-40
2021/04/12 10:37:43;;;;;;;2.75;0.80;;;11.30;71.80;;;;;;5113364;28;20036;-43
2021/04/12 10:40:41;;;;;;;1.08;0.60;;;11.30;71.70;;;;;;5112041;28;20044;-43
2021/04/12 10:43:25;;;;;;;0.52;0.52;;;11.30;71.60;;;;;;5050308;28;20497;-40
2021/04/12 10:46:06;;;;;;;0.73;0.60;;;11.30;71.60;;;;;;5050322;28;20135;-44
2021/04/12 10:48:40;;;;;;;0.60;0.60;;;11.30;71.70;;;;;;5050524;28;20485;-44
2021/04/12 10:51:23;;;;;;;0.90;0.60;;;11.30;71.60;;;;;;5050637;28;20509;-43
2021/04/12 10:54:16;;;;;;;0.65;0.47;;;11.30;71.60;;;;;;5049967;28;20049;-44
2021/04/12 10:57:12;;;;;;;1.15;0.68;;;11.30;71.60;;;;;;5050471;28;20429;-44
2021/04/12 11:00:11;;;;;;;0.68;0.60;;;11.30;72.20;;;;;;5010609;28;20454;-42
2021/04/12 11:03:13;;;;;;;1.33;0.73;;;11.30;71.50;;;;;;5010576;28;20154;-45
2021/04/12 11:05:43;;;;;;;1.38;0.82;;;11.30;71.50;;;;;;5009154;28;20060;-43
2021/04/12 11:08:30;;;;;;;3.30;0.77;;;11.40;71.60;;;;;;5010634;28;20056;-41
2021/04/12 11:11:14;;;;;;;1.15;0.50;;;11.30;71.40;;;;;;5010788;28;20058;-43
2021/04/12 11:14:01;;;;;;;0.88;0.55;;;11.40;71.50;;;;;;5010721;28;20058;-43
2021/04/12 11:16:36;;;;;;;0.80;0.57;;;11.40;71.40;;;;;;5009110;28;20111;-43
2021/04/12 11:19:17;;;;;;;1.08;0.93;;;11.40;71.40;;;;;;5035738;28;20089;-42
2021/04/12 11:22:22;;;;;;;1.30;0.60;;;11.40;71.40;;;;;;5050449;28;20052;-42
2021/04/12 11:24:51;;;;;;;1.13;0.63;;;11.40;71.30;;;;;;5044036;28;20457;-39
2021/04/12 11:27:40;;;;;;;2.47;0.93;;;11.40;71.30;;;;;;5044072;28;20059;-39
2021/04/12 11:30:13;;;;;;;0.70;0.50;;;11.40;71.30;;;;;;5044391;28;20651;-39
2021/04/12 11:33:00;;;;;;;0.60;0.50;;;11.40;71.30;;;;;;5044955;28;20045;-39
2021/04/12 11:35:45;;;;;;;1.13;0.60;;;11.40;71.20;;;;;;5055617;28;20146;-39
2021/04/12 11:38:36;;;;;;;0.60;0.40;;;11.40;71.10;;;;;;5104501;28;20060;-38
2021/04/12 11:41:11;;;;;;;0.50;0.50;;;11.40;71.10;;;;;;5057394;28;20090;-39
2021/04/12 11:43:40;;;;;;;0.73;0.60;;;11.40;71.10;;;;;;5064659;28;20048;-38
2021/04/12 11:46:17;;;;;;;0.47;0.47;;;11.40;71.10;;;;;;5064133;28;20060;-39
2021/04/12 11:48:46;;;;;;;0.77;0.50;;;11.40;71.10;;;;;;5064179;28;20107;-38
2021/04/12 11:51:23;;;;;;;0.82;0.60;;;11.40;71.10;;;;;;5064107;28;20052;-39
2021/04/12 11:53:54;;;;;;;1.17;0.70;;;11.40;71.00;;;;;;5064396;28;20140;-39
2021/04/12 11:56:30;;;;;;;0.95;0.57;;;11.40;71.00;;;;;;5047592;28;20194;-38
2021/04/12 11:59:01;;;;;;;1.70;0.60;;;11.40;71.00;;;;;;5063781;28;20057;-38
2021/04/12 12:01:54;;;;;;;1.35;0.98;;;11.40;71.00;;;;;;5063971;28;20118;-38
2021/04/12 12:04:51;;;;;;;1.35;0.60;;;11.40;71.00;;;;;;5064001;28;20056;-40
2021/04/12 12:07:16;;;;;;;;;;;11.40;71.00;;;;;;5068365;28;20064;-39
2021/04/12 12:09:42;;;;;;;;;;;11.40;71.00;;;;;;5067803;28;20078;-39
2021/04/12 12:12:32;;;;;;;0.77;0.40;;;11.40;71.00;;;;;;5067742;28;19920;-39
2021/04/12 12:15:24;;;;;;;0.95;0.68;;;11.40;71.00;;;;;;5067551;28;20066;-39
2021/04/12 12:18:05;;;;;;;1.42;0.43;;;11.40;71.00;;;;;;5084581;28;20052;-39
2021/04/12 12:20:44;;;;;;;0.40;0.40;;;11.40;71.00;;;;;;5111094;28;20067;-40
2021/04/12 12:23:34;;;;;;;1.33;0.68;;;11.40;71.00;;;;;;5110797;28;20855;-40
2021/04/12 12:26:03;;;;;;;0.80;0.50;;;11.40;71.00;;;;;;5110601;28;20060;-41
2021/04/12 12:28:42;;;;;;;0.40;0.40;;;11.40;71.00;;;;;;5110713;28;20052;-39
2021/04/12 12:31:32;;;;;;;0.80;0.50;;;11.40;70.90;;;;;;5110513;28;20047;-41
2021/04/12 12:34:35;;;;;;;0.93;0.70;;;11.40;70.90;;;;;;5110848;28;20047;-40
2021/04/12 12:37:03;;;;;;;0.60;0.60;;;11.40;70.90;;;;;;5110425;28;20084;-40
2021/04/12 12:39:36;;;;;;;0.82;0.60;;;11.40;71.00;;;;;;5110985;28;20093;-40
2021/04/12 12:42:33;;;;;;;0.70;0.63;;;11.40;70.90;;;;;;5110016;28;20051;-40
2021/04/12 12:45:07;;;;;;;0.85;0.47;;;11.40;70.90;;;;;;5104076;28;20562;-41
2021/04/12 12:47:36;;;;;;;1.65;0.60;;;11.40;70.80;;;;;;5110648;28;20769;-40
2021/04/12 12:50:07;;;;;;;0.88;0.70;;;11.40;70.80;;;;;;5110271;28;20039;-41
2021/04/12 12:52:44;;;;;;;2.58;0.82;;;11.40;70.80;;;;;;5110426;28;20079;-39
2021/04/12 12:55:22;;;;;;;0.88;0.40;;;11.40;70.80;;;;;;5109964;28;20083;-39
2021/04/12 12:57:50;;;;;;;0.70;0.55;;;11.40;70.70;;;;;;5110730;28;20573;-41
2021/04/12 13:00:41;;;;;;;1.05;0.47;;;11.40;70.80;;;;;;5109955;28;20489;-41
2021/04/12 13:03:27;;;;;;;0.75;0.47;;;11.30;70.60;;;;;;5088306;28;20055;-40
2021/04/12 13:05:53;;;;;;;;;;;11.40;70.60;;;;;;5096182;28;20134;-39
2021/04/12 13:08:34;;;;;;;0.95;0.60;;;11.30;70.50;;;;;;5110382;27;19931;-40
2021/04/12 13:11:00;;;;;;;2.88;0.60;;;11.30;70.60;;;;;;5109420;28;20051;-40
2021/04/12 13:13:29;;;;;;;1.17;0.50;;;11.30;70.70;;;;;;5110312;28;20507;-39
2021/04/12 13:16:08;;;;;;;0.60;0.50;;;11.30;70.70;;;;;;5109523;28;20052;-39
2021/04/12 13:18:34;;;;;;;1.30;0.50;;;11.30;70.60;;;;;;5108941;28;20085;-39
2021/04/12 13:21:23;;;;;;;0.40;0.40;;;11.40;70.70;;;;;;5109380;28;20048;-37
2021/04/12 13:23:53;;;;;;;0.73;0.50;;;11.30;70.50;;;;;;5110262;28;20086;-38
2021/04/12 13:26:45;;;;;;;1.13;0.70;;;11.30;70.60;;;;;;5109625;28;20059;-38
2021/04/12 13:29:19;;;;;;;1.48;0.73;;;11.30;70.50;;;;;;5109105;28;20063;-38
2021/04/12 13:32:13;;;;;;;0.40;0.40;;;11.30;70.50;;;;;;5109509;28;20048;-39
2021/04/12 13:35:02;;;;;;;5.43;0.88;;;11.30;70.40;;;;;;5109749;28;20055;-39
2021/04/12 13:37:37;;;;;;;2.22;0.85;;;11.20;69.60;;;;;;5109227;27;20051;-39
2021/04/12 13:40:26;;;;;;;4.80;0.80;;;11.10;69.70;;;;;;5104108;28;20066;-38
2021/04/12 13:43:02;;;;;;;2.85;0.98;;;11.10;69.80;;;;;;5100001;28;20055;-38
2021/04/12 13:45:32;;;;;;;5.65;1.17;;;11.10;70.00;;;;;;5108904;28;20113;-37
2021/04/12 13:48:08;;;;;;;4.00;0.73;;;11.10;69.90;;;;;;5108556;28;20047;-37
2021/04/12 13:50:52;;;;;;;0.65;0.50;;;11.10;70.00;;;;;;5109190;28;20051;-43
2021/04/12 13:53:38;;;;;;;2.92;0.70;;;11.10;70.00;;;;;;5108909;28;20051;-37
2021/04/12 13:56:17;;;;;;;2.13;1.27;;;11.10;70.00;;;;;;5108854;28;20051;-37
2021/04/12 13:59:24;;;;;;;3.80;0.90;;;11.10;70.10;;;;;;5108528;28;20067;-38
2021/04/12 14:02:07;;;;;;;3.38;0.85;;;11.10;70.10;;;;;;5108878;28;20059;-38
2021/04/12 14:04:46;;;;;;;4.13;1.15;;;11.10;70.20;;;;;;5109326;28;20052;-38
2021/04/12 14:07:17;;;;;;;1.17;0.65;;;11.20;70.30;;;;;;5109054;28;20047;-37
2021/04/12 14:10:02;;;;;;;2.35;0.70;;;11.20;70.40;;;;;;5108742;28;20104;-37
2021/04/12 14:12:32;;;;;;;2.20;0.75;;;11.20;70.50;;;;;;5109336;28;20510;-38
2021/04/12 14:15:16;;;;;;;2.25;0.50;;;11.20;70.60;;;;;;5106376;28;20044;-37
2021/04/12 14:17:48;;;;;;;0.93;0.45;;;11.20;70.60;;;;;;5108582;28;20051;-38
2021/04/12 14:20:24;;;;;;;1.17;0.55;;;11.20;71.30;;;;;;5109068;28;20123;-39
2021/04/12 14:22:53;;;;;;;0.90;0.77;;;11.20;70.70;;;;;;5108598;28;20079;-38
2021/04/12 14:25:22;;;;;;;1.20;0.60;;;11.20;70.80;;;;;;5109209;28;20051;-37
2021/04/12 14:27:50;;;;;;;2.47;0.70;;;11.20;70.80;;;;;;5107845;28;20051;-38